sensor_id;sensor_type;location;lat;lon;timestamp;temperature;humidity
33741;DHT22;20065;48.380;10.892;2023-07-13T00:00:49;19.00;99.90
33741;DHT22;20065;48.380;10.892;2023-07-13T00:03:36;19.00;99.90
33741;DHT22;20065;48.380;10.892;2023-07-13T00:06:22;18.90;99.90
33741;DHT22;20065;48.380;10.892;2023-07-13T00:09:08;18.90;99.90
33741;DHT22;20065;48.380;10.892;2023-07-13T00:11:57;18.80;99.90
33741;DHT22;20065;48.380;10.892;2023-07-13T00:14:43;18.90;99.90
33741;DHT22;20065;48.380;10.892;2023-07-13T00:17:29;18.80;99.90
33741;DHT22;20065;48.380;10.892;2023-07-13T00:20:16;18.80;99.90
33741;DHT22;20065;48.380;10.892;2023-07-13T00:23:02;18.80;99.90
33741;DHT22;20065;48.380;10.892;2023-07-13T00:25:48;18.80;99.90
33741;DHT22;20065;48.380;10.892;2023-07-13T00:28:44;18.80;99.90
33741;DHT22;20065;48.380;10.892;2023-07-13T00:32:19;18.80;99.90
33741;DHT22;20065;48.380;10.892;2023-07-13T00:35:05;18.80;99.90
33741;DHT22;20065;48.380;10.892;2023-07-13T00:37:51;18.80;99.90
33741;DHT22;20065;48.380;10.892;2023-07-13T00:40:37;18.80;99.90
33741;DHT22;20065;48.380;10.892;2023-07-13T00:43:26;18.80;99.90
33741;DHT22;20065;48.380;10.892;2023-07-13T00:46:17;18.80;99.90
33741;DHT22;20065;48.380;10.892;2023-07-13T00:49:13;18.70;99.90
33741;DHT22;20065;48.380;10.892;2023-07-13T00:52:09;18.60;99.90
33741;DHT22;20065;48.380;10.892;2023-07-13T00:55:18;18.70;99.90
33741;DHT22;20065;48.380;10.892;2023-07-13T00:58:31;18.70;99.90
33741;DHT22;20065;48.380;10.892;2023-07-13T01:01:18;18.60;99.90
33741;DHT22;20065;48.380;10.892;2023-07-13T01:04:04;18.70;99.90
33741;DHT22;20065;48.380;10.892;2023-07-13T01:06:54;18.80;99.90
33741;DHT22;20065;48.380;10.892;2023-07-13T01:09:41;18.80;99.90
33741;DHT22;20065;48.380;10.892;2023-07-13T01:12:27;18.90;99.90
33741;DHT22;20065;48.380;10.892;2023-07-13T01:15:43;18.90;99.90
33741;DHT22;20065;48.380;10.892;2023-07-13T01:18:31;19.20;99.90
33741;DHT22;20065;48.380;10.892;2023-07-13T01:21:18;19.10;99.90
33741;DHT22;20065;48.380;10.892;2023-07-13T01:24:05;18.90;99.90
33741;DHT22;20065;48.380;10.892;2023-07-13T01:26:51;18.90;99.90
33741;DHT22;20065;48.380;10.892;2023-07-13T01:29:38;18.90;99.90
33741;DHT22;20065;48.380;10.892;2023-07-13T01:32:28;18.70;99.90
33741;DHT22;20065;48.380;10.892;2023-07-13T01:35:17;18.80;99.90
33741;DHT22;20065;48.380;10.892;2023-07-13T01:38:04;18.90;99.90
33741;DHT22;20065;48.380;10.892;2023-07-13T01:40:51;18.90;99.90
33741;DHT22;20065;48.380;10.892;2023-07-13T01:43:38;18.80;99.90
33741;DHT22;20065;48.380;10.892;2023-07-13T01:46:26;18.80;99.90
33741;DHT22;20065;48.380;10.892;2023-07-13T01:49:12;18.80;99.90
33741;DHT22;20065;48.380;10.892;2023-07-13T01:51:59;18.70;99.90
33741;DHT22;20065;48.380;10.892;2023-07-13T01:55:08;18.60;99.90
33741;DHT22;20065;48.380;10.892;2023-07-13T01:58:03;18.60;99.90
33741;DHT22;20065;48.380;10.892;2023-07-13T02:00:49;18.50;99.90
33741;DHT22;20065;48.380;10.892;2023-07-13T02:03:37;18.50;99.90
33741;DHT22;20065;48.380;10.892;2023-07-13T02:06:23;18.50;99.90
33741;DHT22;20065;48.380;10.892;2023-07-13T02:09:13;18.50;99.90
33741;DHT22;20065;48.380;10.892;2023-07-13T02:11:59;18.50;99.90
33741;DHT22;20065;48.380;10.892;2023-07-13T02:14:51;18.50;99.90
33741;DHT22;20065;48.380;10.892;2023-07-13T02:17:37;18.50;99.90
33741;DHT22;20065;48.380;10.892;2023-07-13T02:20:26;18.50;99.90
33741;DHT22;20065;48.380;10.892;2023-07-13T02:23:12;18.60;99.90
33741;DHT22;20065;48.380;10.892;2023-07-13T02:26:00;18.60;99.90
33741;DHT22;20065;48.380;10.892;2023-07-13T02:28:48;18.60;99.90
33741;DHT22;20065;48.380;10.892;2023-07-13T02:31:34;18.70;99.90
33741;DHT22;20065;48.380;10.892;2023-07-13T02:34:21;18.70;99.90
33741;DHT22;20065;48.380;10.892;2023-07-13T02:37:08;18.60;99.90
33741;DHT22;20065;48.380;10.892;2023-07-13T02:39:55;18.80;99.90
33741;DHT22;20065;48.380;10.892;2023-07-13T02:42:42;19.00;99.90
33741;DHT22;20065;48.380;10.892;2023-07-13T02:45:28;18.80;99.90
33741;DHT22;20065;48.380;10.892;2023-07-13T02:48:15;18.90;99.90
33741;DHT22;20065;48.380;10.892;2023-07-13T02:51:01;18.80;99.90
33741;DHT22;20065;48.380;10.892;2023-07-13T02:53:47;18.70;99.90
33741;DHT22;20065;48.380;10.892;2023-07-13T02:56:34;18.60;99.90
33741;DHT22;20065;48.380;10.892;2023-07-13T02:59:20;18.70;99.90
33741;DHT22;20065;48.380;10.892;2023-07-13T03:02:06;18.90;99.90
33741;DHT22;20065;48.380;10.892;2023-07-13T03:04:54;19.10;99.90
33741;DHT22;20065;48.380;10.892;2023-07-13T03:07:40;18.90;99.90
33741;DHT22;20065;48.380;10.892;2023-07-13T03:10:28;18.80;99.90
33741;DHT22;20065;48.380;10.892;2023-07-13T03:13:15;18.70;99.90
33741;DHT22;20065;48.380;10.892;2023-07-13T03:16:03;18.60;99.90
33741;DHT22;20065;48.380;10.892;2023-07-13T03:18:49;18.70;99.90
33741;DHT22;20065;48.380;10.892;2023-07-13T03:21:36;18.60;99.90
33741;DHT22;20065;48.380;10.892;2023-07-13T03:24:23;18.90;99.90
33741;DHT22;20065;48.380;10.892;2023-07-13T03:27:11;18.70;99.90
33741;DHT22;20065;48.380;10.892;2023-07-13T03:30:02;18.70;99.90
33741;DHT22;20065;48.380;10.892;2023-07-13T03:32:48;18.80;99.90
33741;DHT22;20065;48.380;10.892;2023-07-13T03:35:35;18.70;99.90
33741;DHT22;20065;48.380;10.892;2023-07-13T03:38:21;18.60;99.90
33741;DHT22;20065;48.380;10.892;2023-07-13T03:41:07;18.60;99.90
33741;DHT22;20065;48.380;10.892;2023-07-13T03:43:54;18.50;99.90
33741;DHT22;20065;48.380;10.892;2023-07-13T03:46:43;18.40;99.90
33741;DHT22;20065;48.380;10.892;2023-07-13T03:49:30;18.40;99.90
33741;DHT22;20065;48.380;10.892;2023-07-13T03:52:16;18.30;99.90
33741;DHT22;20065;48.380;10.892;2023-07-13T03:55:03;18.40;99.90
33741;DHT22;20065;48.380;10.892;2023-07-13T03:57:58;18.50;99.90
33741;DHT22;20065;48.380;10.892;2023-07-13T04:00:44;18.50;99.90
33741;DHT22;20065;48.380;10.892;2023-07-13T04:03:31;18.30;99.90
33741;DHT22;20065;48.380;10.892;2023-07-13T04:06:26;18.20;99.90
33741;DHT22;20065;48.380;10.892;2023-07-13T04:09:13;18.10;99.90
33741;DHT22;20065;48.380;10.892;2023-07-13T04:11:59;18.10;99.90
33741;DHT22;20065;48.380;10.892;2023-07-13T04:14:47;18.10;99.90
33741;DHT22;20065;48.380;10.892;2023-07-13T04:17:33;18.00;99.90
33741;DHT22;20065;48.380;10.892;2023-07-13T04:20:20;18.00;99.90
33741;DHT22;20065;48.380;10.892;2023-07-13T04:23:07;18.00;99.90
33741;DHT22;20065;48.380;10.892;2023-07-13T04:25:54;18.00;99.90
33741;DHT22;20065;48.380;10.892;2023-07-13T04:28:40;18.00;99.90
33741;DHT22;20065;48.380;10.892;2023-07-13T04:31:26;17.90;99.90
33741;DHT22;20065;48.380;10.892;2023-07-13T04:34:12;17.90;99.90
33741;DHT22;20065;48.380;10.892;2023-07-13T04:36:58;17.90;99.90
33741;DHT22;20065;48.380;10.892;2023-07-13T04:39:44;17.80;99.90
33741;DHT22;20065;48.380;10.892;2023-07-13T04:42:32;17.90;99.90
33741;DHT22;20065;48.380;10.892;2023-07-13T04:45:24;17.90;99.90
33741;DHT22;20065;48.380;10.892;2023-07-13T04:48:10;18.00;99.90
33741;DHT22;20065;48.380;10.892;2023-07-13T04:50:57;18.00;99.90
33741;DHT22;20065;48.380;10.892;2023-07-13T04:53:44;18.10;99.90
33741;DHT22;20065;48.380;10.892;2023-07-13T04:56:30;18.20;99.90
33741;DHT22;20065;48.380;10.892;2023-07-13T04:59:16;18.10;99.90
33741;DHT22;20065;48.380;10.892;2023-07-13T05:02:04;18.20;99.90
33741;DHT22;20065;48.380;10.892;2023-07-13T05:04:50;18.20;99.90
33741;DHT22;20065;48.380;10.892;2023-07-13T05:07:36;18.10;99.90
33741;DHT22;20065;48.380;10.892;2023-07-13T05:10:23;18.10;99.90
33741;DHT22;20065;48.380;10.892;2023-07-13T05:13:09;18.10;99.90
33741;DHT22;20065;48.380;10.892;2023-07-13T05:15:58;18.10;99.90
33741;DHT22;20065;48.380;10.892;2023-07-13T05:18:44;18.20;99.90
33741;DHT22;20065;48.380;10.892;2023-07-13T05:21:30;18.30;99.90
33741;DHT22;20065;48.380;10.892;2023-07-13T05:24:17;18.30;99.90
33741;DHT22;20065;48.380;10.892;2023-07-13T05:27:03;18.10;99.90
33741;DHT22;20065;48.380;10.892;2023-07-13T05:29:49;18.10;99.90
33741;DHT22;20065;48.380;10.892;2023-07-13T05:32:36;18.20;99.90
33741;DHT22;20065;48.380;10.892;2023-07-13T05:35:22;18.20;99.90
33741;DHT22;20065;48.380;10.892;2023-07-13T05:38:08;18.20;99.90
33741;DHT22;20065;48.380;10.892;2023-07-13T05:40:55;18.40;99.90
33741;DHT22;20065;48.380;10.892;2023-07-13T05:43:42;18.50;99.90
33741;DHT22;20065;48.380;10.892;2023-07-13T05:46:29;18.70;99.90
33741;DHT22;20065;48.380;10.892;2023-07-13T05:49:20;18.80;99.90
33741;DHT22;20065;48.380;10.892;2023-07-13T05:52:09;18.80;99.90
33741;DHT22;20065;48.380;10.892;2023-07-13T05:54:55;18.90;99.90
33741;DHT22;20065;48.380;10.892;2023-07-13T05:57:42;18.80;99.90
33741;DHT22;20065;48.380;10.892;2023-07-13T06:00:28;18.70;99.90
33741;DHT22;20065;48.380;10.892;2023-07-13T06:03:15;18.70;99.90
33741;DHT22;20065;48.380;10.892;2023-07-13T06:06:01;18.70;99.90
33741;DHT22;20065;48.380;10.892;2023-07-13T06:08:47;18.70;99.90
33741;DHT22;20065;48.380;10.892;2023-07-13T06:11:33;18.60;99.90
33741;DHT22;20065;48.380;10.892;2023-07-13T06:14:20;18.50;99.90
33741;DHT22;20065;48.380;10.892;2023-07-13T06:17:07;18.50;99.90
33741;DHT22;20065;48.380;10.892;2023-07-13T06:19:53;18.30;99.90
33741;DHT22;20065;48.380;10.892;2023-07-13T06:22:40;18.20;99.90
33741;DHT22;20065;48.380;10.892;2023-07-13T06:25:27;18.20;99.90
33741;DHT22;20065;48.380;10.892;2023-07-13T06:28:13;18.00;99.90
33741;DHT22;20065;48.380;10.892;2023-07-13T06:30:59;18.00;99.90
33741;DHT22;20065;48.380;10.892;2023-07-13T06:33:45;18.00;99.90
33741;DHT22;20065;48.380;10.892;2023-07-13T06:36:32;17.90;99.90
33741;DHT22;20065;48.380;10.892;2023-07-13T06:39:18;17.80;99.90
33741;DHT22;20065;48.380;10.892;2023-07-13T06:42:05;17.70;99.90
33741;DHT22;20065;48.380;10.892;2023-07-13T06:44:52;17.90;99.90
33741;DHT22;20065;48.380;10.892;2023-07-13T06:47:38;17.90;99.90
33741;DHT22;20065;48.380;10.892;2023-07-13T06:50:24;17.90;99.90
33741;DHT22;20065;48.380;10.892;2023-07-13T06:53:11;18.00;99.90
33741;DHT22;20065;48.380;10.892;2023-07-13T06:55:57;18.10;99.90
33741;DHT22;20065;48.380;10.892;2023-07-13T06:58:44;18.00;99.90
33741;DHT22;20065;48.380;10.892;2023-07-13T07:01:30;17.90;99.90
33741;DHT22;20065;48.380;10.892;2023-07-13T07:04:16;17.80;99.90
33741;DHT22;20065;48.380;10.892;2023-07-13T07:07:04;17.80;99.90
33741;DHT22;20065;48.380;10.892;2023-07-13T07:09:50;17.90;99.90
33741;DHT22;20065;48.380;10.892;2023-07-13T07:12:39;17.90;99.90
33741;DHT22;20065;48.380;10.892;2023-07-13T07:15:26;18.00;99.90
33741;DHT22;20065;48.380;10.892;2023-07-13T07:18:36;18.10;99.90
33741;DHT22;20065;48.380;10.892;2023-07-13T07:21:23;18.10;99.90
33741;DHT22;20065;48.380;10.892;2023-07-13T07:24:09;18.20;99.90
33741;DHT22;20065;48.380;10.892;2023-07-13T07:26:56;18.30;99.90
33741;DHT22;20065;48.380;10.892;2023-07-13T07:29:42;18.30;99.90
33741;DHT22;20065;48.380;10.892;2023-07-13T07:32:30;18.30;99.90
33741;DHT22;20065;48.380;10.892;2023-07-13T07:35:16;18.20;99.90
33741;DHT22;20065;48.380;10.892;2023-07-13T07:38:03;18.20;99.90
33741;DHT22;20065;48.380;10.892;2023-07-13T07:40:49;18.30;99.90
33741;DHT22;20065;48.380;10.892;2023-07-13T07:43:36;18.40;99.90
33741;DHT22;20065;48.380;10.892;2023-07-13T07:46:22;18.50;99.90
33741;DHT22;20065;48.380;10.892;2023-07-13T07:49:08;18.60;99.90
33741;DHT22;20065;48.380;10.892;2023-07-13T07:51:54;18.60;99.90
33741;DHT22;20065;48.380;10.892;2023-07-13T07:54:41;18.50;99.90
33741;DHT22;20065;48.380;10.892;2023-07-13T07:57:45;18.70;99.90
33741;DHT22;20065;48.380;10.892;2023-07-13T08:01:03;18.60;99.90
33741;DHT22;20065;48.380;10.892;2023-07-13T08:03:50;18.80;99.90
33741;DHT22;20065;48.380;10.892;2023-07-13T08:06:36;18.90;99.90
33741;DHT22;20065;48.380;10.892;2023-07-13T08:09:23;19.10;99.90
33741;DHT22;20065;48.380;10.892;2023-07-13T08:12:11;19.00;99.90
33741;DHT22;20065;48.380;10.892;2023-07-13T08:14:58;19.20;99.90
33741;DHT22;20065;48.380;10.892;2023-07-13T08:17:49;19.20;99.90
33741;DHT22;20065;48.380;10.892;2023-07-13T08:20:39;19.20;99.90
33741;DHT22;20065;48.380;10.892;2023-07-13T08:23:26;19.30;99.90
33741;DHT22;20065;48.380;10.892;2023-07-13T08:26:12;19.40;99.90
33741;DHT22;20065;48.380;10.892;2023-07-13T08:28:58;19.30;99.90
33741;DHT22;20065;48.380;10.892;2023-07-13T08:31:44;19.10;99.90
33741;DHT22;20065;48.380;10.892;2023-07-13T08:34:30;18.90;99.90
33741;DHT22;20065;48.380;10.892;2023-07-13T08:37:17;18.90;99.90
33741;DHT22;20065;48.380;10.892;2023-07-13T08:40:04;19.10;99.90
33741;DHT22;20065;48.380;10.892;2023-07-13T08:42:54;19.10;99.90
33741;DHT22;20065;48.380;10.892;2023-07-13T08:45:51;19.10;99.90
33741;DHT22;20065;48.380;10.892;2023-07-13T08:48:56;19.10;99.90
33741;DHT22;20065;48.380;10.892;2023-07-13T08:51:48;19.30;99.90
33741;DHT22;20065;48.380;10.892;2023-07-13T08:54:39;19.50;99.90
33741;DHT22;20065;48.380;10.892;2023-07-13T08:57:31;19.40;99.90
33741;DHT22;20065;48.380;10.892;2023-07-13T09:00:19;19.40;99.90
33741;DHT22;20065;48.380;10.892;2023-07-13T09:03:16;19.40;99.90
33741;DHT22;20065;48.380;10.892;2023-07-13T09:06:06;19.60;99.90
33741;DHT22;20065;48.380;10.892;2023-07-13T09:09:20;19.60;99.90
33741;DHT22;20065;48.380;10.892;2023-07-13T09:12:11;19.70;99.90
33741;DHT22;20065;48.380;10.892;2023-07-13T09:15:02;19.80;99.90
33741;DHT22;20065;48.380;10.892;2023-07-13T09:17:52;20.10;99.90
33741;DHT22;20065;48.380;10.892;2023-07-13T09:23:37;20.10;99.90
33741;DHT22;20065;48.380;10.892;2023-07-13T09:26:25;20.00;99.90
33741;DHT22;20065;48.380;10.892;2023-07-13T09:29:32;20.00;99.90
33741;DHT22;20065;48.380;10.892;2023-07-13T09:32:24;19.90;99.90
33741;DHT22;20065;48.380;10.892;2023-07-13T09:35:15;19.90;99.90
33741;DHT22;20065;48.380;10.892;2023-07-13T09:38:17;19.90;99.90
33741;DHT22;20065;48.380;10.892;2023-07-13T09:41:26;19.80;99.90
33741;DHT22;20065;48.380;10.892;2023-07-13T09:44:17;19.70;99.90
33741;DHT22;20065;48.380;10.892;2023-07-13T09:47:17;19.90;99.90
33741;DHT22;20065;48.380;10.892;2023-07-13T09:50:14;20.10;99.90
33741;DHT22;20065;48.380;10.892;2023-07-13T09:53:01;19.90;99.90
33741;DHT22;20065;48.380;10.892;2023-07-13T09:55:48;19.80;99.90
33741;DHT22;20065;48.380;10.892;2023-07-13T09:58:35;19.90;99.90
33741;DHT22;20065;48.380;10.892;2023-07-13T10:01:43;20.10;99.90
33741;DHT22;20065;48.380;10.892;2023-07-13T10:04:34;20.40;99.90
33741;DHT22;20065;48.380;10.892;2023-07-13T10:07:25;20.30;99.90
33741;DHT22;20065;48.380;10.892;2023-07-13T10:10:17;20.40;99.90
33741;DHT22;20065;48.380;10.892;2023-07-13T10:13:04;20.40;99.90
33741;DHT22;20065;48.380;10.892;2023-07-13T10:15:51;20.40;99.90
33741;DHT22;20065;48.380;10.892;2023-07-13T10:18:50;20.30;99.90
33741;DHT22;20065;48.380;10.892;2023-07-13T10:21:43;20.40;99.90
33741;DHT22;20065;48.380;10.892;2023-07-13T10:24:44;20.50;99.90
33741;DHT22;20065;48.380;10.892;2023-07-13T10:27:40;20.80;99.90
33741;DHT22;20065;48.380;10.892;2023-07-13T10:30:30;21.10;99.90
33741;DHT22;20065;48.380;10.892;2023-07-13T10:33:17;20.90;99.90
33741;DHT22;20065;48.380;10.892;2023-07-13T10:36:14;20.80;99.90
33741;DHT22;20065;48.380;10.892;2023-07-13T10:39:03;20.80;99.90
33741;DHT22;20065;48.380;10.892;2023-07-13T10:41:55;20.70;99.90
33741;DHT22;20065;48.380;10.892;2023-07-13T10:44:44;20.80;99.90
33741;DHT22;20065;48.380;10.892;2023-07-13T10:47:30;20.90;99.90
33741;DHT22;20065;48.380;10.892;2023-07-13T10:50:23;21.00;99.90
33741;DHT22;20065;48.380;10.892;2023-07-13T10:53:34;21.00;99.90
33741;DHT22;20065;48.380;10.892;2023-07-13T10:56:39;21.10;99.90
33741;DHT22;20065;48.380;10.892;2023-07-13T10:59:27;21.30;99.90
33741;DHT22;20065;48.380;10.892;2023-07-13T11:02:26;21.40;99.90
33741;DHT22;20065;48.380;10.892;2023-07-13T11:05:33;21.50;99.90
33741;DHT22;20065;48.380;10.892;2023-07-13T11:08:35;21.60;99.90
33741;DHT22;20065;48.380;10.892;2023-07-13T11:14:41;21.40;99.90
33741;DHT22;20065;48.380;10.892;2023-07-13T11:17:48;21.40;99.90
33741;DHT22;20065;48.380;10.892;2023-07-13T11:20:37;21.40;99.90
33741;DHT22;20065;48.380;10.892;2023-07-13T11:23:29;21.30;99.90
33741;DHT22;20065;48.380;10.892;2023-07-13T11:27:09;21.30;99.90
33741;DHT22;20065;48.380;10.892;2023-07-13T11:29:48;21.40;99.90
33741;DHT22;20065;48.380;10.892;2023-07-13T11:32:36;21.60;99.90
33741;DHT22;20065;48.380;10.892;2023-07-13T11:41:58;21.40;99.90
33741;DHT22;20065;48.380;10.892;2023-07-13T11:44:50;21.60;99.90
33741;DHT22;20065;48.380;10.892;2023-07-13T11:47:40;21.80;99.90
33741;DHT22;20065;48.380;10.892;2023-07-13T11:50:28;21.70;99.90
33741;DHT22;20065;48.380;10.892;2023-07-13T11:53:15;22.00;99.90
33741;DHT22;20065;48.380;10.892;2023-07-13T11:56:01;22.00;99.90
33741;DHT22;20065;48.380;10.892;2023-07-13T11:58:52;22.00;99.90
33741;DHT22;20065;48.380;10.892;2023-07-13T12:01:50;21.80;99.90
33741;DHT22;20065;48.380;10.892;2023-07-13T12:04:38;21.60;99.90
33741;DHT22;20065;48.380;10.892;2023-07-13T12:07:28;21.60;99.90
33741;DHT22;20065;48.380;10.892;2023-07-13T12:10:28;21.70;99.90
33741;DHT22;20065;48.380;10.892;2023-07-13T12:13:18;21.60;99.90
33741;DHT22;20065;48.380;10.892;2023-07-13T12:16:14;21.80;99.90
33741;DHT22;20065;48.380;10.892;2023-07-13T12:19:02;21.90;99.90
33741;DHT22;20065;48.380;10.892;2023-07-13T12:21:49;21.90;99.90
33741;DHT22;20065;48.380;10.892;2023-07-13T12:24:36;21.80;99.90
33741;DHT22;20065;48.380;10.892;2023-07-13T12:27:26;21.90;99.90
33741;DHT22;20065;48.380;10.892;2023-07-13T12:30:31;21.80;99.90
33741;DHT22;20065;48.380;10.892;2023-07-13T12:33:27;22.10;99.90
33741;DHT22;20065;48.380;10.892;2023-07-13T12:36:16;22.00;99.90
33741;DHT22;20065;48.380;10.892;2023-07-13T12:39:29;22.00;99.90
33741;DHT22;20065;48.380;10.892;2023-07-13T12:48:15;22.20;99.90
33741;DHT22;20065;48.380;10.892;2023-07-13T12:51:02;22.30;99.90
33741;DHT22;20065;48.380;10.892;2023-07-13T12:53:56;22.40;99.90
33741;DHT22;20065;48.380;10.892;2023-07-13T12:56:50;22.50;99.90
33741;DHT22;20065;48.380;10.892;2023-07-13T12:59:38;22.80;99.90
33741;DHT22;20065;48.380;10.892;2023-07-13T13:02:31;22.80;99.90
33741;DHT22;20065;48.380;10.892;2023-07-13T13:05:19;22.80;99.90
33741;DHT22;20065;48.380;10.892;2023-07-13T13:08:11;22.60;99.90
33741;DHT22;20065;48.380;10.892;2023-07-13T13:10:57;22.70;99.90
33741;DHT22;20065;48.380;10.892;2023-07-13T13:13:44;22.60;99.90
33741;DHT22;20065;48.380;10.892;2023-07-13T13:16:34;22.60;99.90
33741;DHT22;20065;48.380;10.892;2023-07-13T13:19:26;22.80;99.90
33741;DHT22;20065;48.380;10.892;2023-07-13T13:22:13;22.90;99.90
33741;DHT22;20065;48.380;10.892;2023-07-13T13:24:59;22.80;99.90
33741;DHT22;20065;48.380;10.892;2023-07-13T13:27:46;23.20;99.90
33741;DHT22;20065;48.380;10.892;2023-07-13T13:30:32;22.90;99.90
33741;DHT22;20065;48.380;10.892;2023-07-13T13:33:20;22.90;99.90
33741;DHT22;20065;48.380;10.892;2023-07-13T13:36:13;23.00;99.90
33741;DHT22;20065;48.380;10.892;2023-07-13T13:42:04;22.90;99.90
33741;DHT22;20065;48.380;10.892;2023-07-13T13:44:50;23.00;99.90
33741;DHT22;20065;48.380;10.892;2023-07-13T13:47:37;22.90;99.90
33741;DHT22;20065;48.380;10.892;2023-07-13T13:50:23;23.00;99.90
33741;DHT22;20065;48.380;10.892;2023-07-13T13:53:11;23.10;99.90
33741;DHT22;20065;48.380;10.892;2023-07-13T13:55:59;23.10;99.90
33741;DHT22;20065;48.380;10.892;2023-07-13T13:58:45;23.10;99.90
33741;DHT22;20065;48.380;10.892;2023-07-13T14:01:32;23.30;99.90
33741;DHT22;20065;48.380;10.892;2023-07-13T14:04:21;23.40;99.90
33741;DHT22;20065;48.380;10.892;2023-07-13T14:07:07;23.10;99.90
33741;DHT22;20065;48.380;10.892;2023-07-13T14:09:57;23.10;99.90
33741;DHT22;20065;48.380;10.892;2023-07-13T14:12:50;23.00;99.90
33741;DHT22;20065;48.380;10.892;2023-07-13T14:15:37;23.20;99.90
33741;DHT22;20065;48.380;10.892;2023-07-13T14:18:23;23.20;99.90
33741;DHT22;20065;48.380;10.892;2023-07-13T14:21:15;23.30;99.90
33741;DHT22;20065;48.380;10.892;2023-07-13T14:24:01;23.30;99.90
33741;DHT22;20065;48.380;10.892;2023-07-13T14:26:48;23.30;99.90
33741;DHT22;20065;48.380;10.892;2023-07-13T14:29:34;23.40;99.90
33741;DHT22;20065;48.380;10.892;2023-07-13T14:32:20;23.30;99.90
33741;DHT22;20065;48.380;10.892;2023-07-13T14:35:10;23.30;99.90
33741;DHT22;20065;48.380;10.892;2023-07-13T14:37:56;23.30;99.90
33741;DHT22;20065;48.380;10.892;2023-07-13T14:40:42;23.50;99.90
33741;DHT22;20065;48.380;10.892;2023-07-13T14:43:29;23.60;99.90
33741;DHT22;20065;48.380;10.892;2023-07-13T14:46:24;23.50;99.90
33741;DHT22;20065;48.380;10.892;2023-07-13T14:49:36;23.40;99.90
33741;DHT22;20065;48.380;10.892;2023-07-13T14:52:24;23.40;99.90
33741;DHT22;20065;48.380;10.892;2023-07-13T14:55:13;23.50;99.90
33741;DHT22;20065;48.380;10.892;2023-07-13T14:57:59;23.60;99.90
33741;DHT22;20065;48.380;10.892;2023-07-13T15:00:46;23.70;99.70
33741;DHT22;20065;48.380;10.892;2023-07-13T15:03:32;23.70;99.90
33741;DHT22;20065;48.380;10.892;2023-07-13T15:06:19;23.70;99.90
33741;DHT22;20065;48.380;10.892;2023-07-13T15:09:11;23.70;99.90
33741;DHT22;20065;48.380;10.892;2023-07-13T15:11:58;23.70;98.50
33741;DHT22;20065;48.380;10.892;2023-07-13T15:14:44;23.70;98.70
33741;DHT22;20065;48.380;10.892;2023-07-13T15:20:33;23.70;98.20
33741;DHT22;20065;48.380;10.892;2023-07-13T15:23:22;23.90;99.90
33741;DHT22;20065;48.380;10.892;2023-07-13T15:26:16;24.00;99.80
33741;DHT22;20065;48.380;10.892;2023-07-13T15:29:03;23.90;98.90
33741;DHT22;20065;48.380;10.892;2023-07-13T15:31:49;23.90;99.10
33741;DHT22;20065;48.380;10.892;2023-07-13T15:34:35;23.80;98.70
33741;DHT22;20065;48.380;10.892;2023-07-13T15:37:21;23.80;99.20
33741;DHT22;20065;48.380;10.892;2023-07-13T15:40:09;24.00;99.90
33741;DHT22;20065;48.380;10.892;2023-07-13T15:42:55;24.00;99.90
33741;DHT22;20065;48.380;10.892;2023-07-13T15:45:42;23.90;99.90
33741;DHT22;20065;48.380;10.892;2023-07-13T15:48:29;23.70;99.00
33741;DHT22;20065;48.380;10.892;2023-07-13T15:51:24;23.80;98.90
33741;DHT22;20065;48.380;10.892;2023-07-13T15:54:14;23.70;98.60
33741;DHT22;20065;48.380;10.892;2023-07-13T15:57:01;23.70;98.70
33741;DHT22;20065;48.380;10.892;2023-07-13T15:59:48;23.70;99.00
33741;DHT22;20065;48.380;10.892;2023-07-13T16:02:34;23.70;98.80
33741;DHT22;20065;48.380;10.892;2023-07-13T16:05:22;23.60;98.10
33741;DHT22;20065;48.380;10.892;2023-07-13T16:11:15;23.60;99.90
33741;DHT22;20065;48.380;10.892;2023-07-13T16:14:03;23.70;99.30
33741;DHT22;20065;48.380;10.892;2023-07-13T16:16:49;23.60;98.80
33741;DHT22;20065;48.380;10.892;2023-07-13T16:19:36;23.60;98.90
33741;DHT22;20065;48.380;10.892;2023-07-13T16:22:22;23.60;98.90
33741;DHT22;20065;48.380;10.892;2023-07-13T16:25:17;23.50;99.50
33741;DHT22;20065;48.380;10.892;2023-07-13T16:28:04;23.60;98.80
33741;DHT22;20065;48.380;10.892;2023-07-13T16:30:51;23.50;98.80
33741;DHT22;20065;48.380;10.892;2023-07-13T16:33:37;23.40;98.50
33741;DHT22;20065;48.380;10.892;2023-07-13T16:36:24;23.50;99.00
33741;DHT22;20065;48.380;10.892;2023-07-13T16:39:12;23.50;98.60
33741;DHT22;20065;48.380;10.892;2023-07-13T16:41:59;23.60;98.60
33741;DHT22;20065;48.380;10.892;2023-07-13T16:44:45;23.60;99.40
33741;DHT22;20065;48.380;10.892;2023-07-13T16:47:31;23.50;99.50
33741;DHT22;20065;48.380;10.892;2023-07-13T16:50:22;23.50;99.40
33741;DHT22;20065;48.380;10.892;2023-07-13T16:53:21;23.50;99.90
33741;DHT22;20065;48.380;10.892;2023-07-13T16:56:13;23.50;99.90
33741;DHT22;20065;48.380;10.892;2023-07-13T16:59:00;23.40;99.70
33741;DHT22;20065;48.380;10.892;2023-07-13T17:01:46;23.30;99.90
33741;DHT22;20065;48.380;10.892;2023-07-13T17:04:32;23.30;99.90
33741;DHT22;20065;48.380;10.892;2023-07-13T17:07:20;23.20;99.90
33741;DHT22;20065;48.380;10.892;2023-07-13T17:10:35;23.30;99.50
33741;DHT22;20065;48.380;10.892;2023-07-13T17:13:25;23.40;99.90
33741;DHT22;20065;48.380;10.892;2023-07-13T17:16:12;23.40;99.60
33741;DHT22;20065;48.380;10.892;2023-07-13T17:18:59;23.50;99.70
33741;DHT22;20065;48.380;10.892;2023-07-13T17:21:58;23.70;99.90
33741;DHT22;20065;48.380;10.892;2023-07-13T17:24:47;23.60;99.60
33741;DHT22;20065;48.380;10.892;2023-07-13T17:27:34;23.40;99.60
33741;DHT22;20065;48.380;10.892;2023-07-13T17:30:21;23.40;99.90
33741;DHT22;20065;48.380;10.892;2023-07-13T17:33:33;23.30;99.90
33741;DHT22;20065;48.380;10.892;2023-07-13T17:36:24;23.10;99.90
33741;DHT22;20065;48.380;10.892;2023-07-13T17:39:18;23.00;99.90
33741;DHT22;20065;48.380;10.892;2023-07-13T17:42:13;23.00;99.90
33741;DHT22;20065;48.380;10.892;2023-07-13T17:44:59;22.80;99.90
33741;DHT22;20065;48.380;10.892;2023-07-13T17:47:46;22.80;99.90
33741;DHT22;20065;48.380;10.892;2023-07-13T17:50:39;22.80;99.90
33741;DHT22;20065;48.380;10.892;2023-07-13T17:53:30;22.80;99.90
33741;DHT22;20065;48.380;10.892;2023-07-13T17:56:19;22.70;99.90
33741;DHT22;20065;48.380;10.892;2023-07-13T17:59:05;22.60;99.90
33741;DHT22;20065;48.380;10.892;2023-07-13T18:01:52;22.60;99.90